sensor_id;sensor_type;location;lat;lon;timestamp;P1;durP1;ratioP1;P2;durP2;ratioP2
6751;SDS011;3413;47.680;9.166;2023-03-04T00:02:23;50.53;;;16.27;;
6751;SDS011;3413;47.680;9.166;2023-03-04T00:07:25;42.87;;;14.70;;
6751;SDS011;3413;47.680;9.166;2023-03-04T00:12:27;52.23;;;16.63;;
6751;SDS011;3413;47.680;9.166;2023-03-04T00:17:29;52.93;;;16.23;;
6751;SDS011;3413;47.680;9.166;2023-03-04T00:22:31;52.60;;;17.53;;
6751;SDS011;3413;47.680;9.166;2023-03-04T00:27:33;51.50;;;15.87;;
6751;SDS011;3413;47.680;9.166;2023-03-04T00:32:36;55.10;;;17.10;;
6751;SDS011;3413;47.680;9.166;2023-03-04T00:37:38;46.80;;;15.17;;
6751;SDS011;3413;47.680;9.166;2023-03-04T00:42:40;55.07;;;16.47;;
6751;SDS011;3413;47.680;9.166;2023-03-04T00:47:42;51.93;;;15.90;;
6751;SDS011;3413;47.680;9.166;2023-03-04T00:52:44;47.43;;;16.30;;
6751;SDS011;3413;47.680;9.166;2023-03-04T00:57:46;54.03;;;17.13;;
6751;SDS011;3413;47.680;9.166;2023-03-04T01:02:48;53.47;;;17.90;;
6751;SDS011;3413;47.680;9.166;2023-03-04T01:07:50;45.20;;;16.13;;
6751;SDS011;3413;47.680;9.166;2023-03-04T01:12:52;43.57;;;16.60;;
6751;SDS011;3413;47.680;9.166;2023-03-04T01:17:54;42.83;;;15.70;;
6751;SDS011;3413;47.680;9.166;2023-03-04T01:22:56;54.13;;;17.17;;
6751;SDS011;3413;47.680;9.166;2023-03-04T01:27:58;46.37;;;17.07;;
6751;SDS011;3413;47.680;9.166;2023-03-04T01:33:00;55.87;;;17.90;;
6751;SDS011;3413;47.680;9.166;2023-03-04T01:38:02;52.43;;;17.60;;
6751;SDS011;3413;47.680;9.166;2023-03-04T01:43:05;62.77;;;17.70;;
6751;SDS011;3413;47.680;9.166;2023-03-04T01:48:08;48.30;;;16.67;;
6751;SDS011;3413;47.680;9.166;2023-03-04T01:53:17;42.93;;;16.00;;
6751;SDS011;3413;47.680;9.166;2023-03-04T01:58:27;46.00;;;15.57;;
6751;SDS011;3413;47.680;9.166;2023-03-04T02:03:30;51.07;;;17.30;;
6751;SDS011;3413;47.680;9.166;2023-03-04T02:08:32;49.47;;;16.13;;
6751;SDS011;3413;47.680;9.166;2023-03-04T02:13:35;45.27;;;16.40;;
6751;SDS011;3413;47.680;9.166;2023-03-04T02:18:38;61.67;;;16.83;;
6751;SDS011;3413;47.680;9.166;2023-03-04T02:29:21;50.63;;;15.33;;
6751;SDS011;3413;47.680;9.166;2023-03-04T02:34:24;51.83;;;15.97;;
6751;SDS011;3413;47.680;9.166;2023-03-04T02:39:34;58.83;;;16.37;;
6751;SDS011;3413;47.680;9.166;2023-03-04T02:44:41;55.97;;;16.43;;
6751;SDS011;3413;47.680;9.166;2023-03-04T02:49:46;40.87;;;15.40;;
6751;SDS011;3413;47.680;9.166;2023-03-04T02:54:48;49.83;;;16.30;;
6751;SDS011;3413;47.680;9.166;2023-03-04T02:59:51;63.03;;;15.40;;
6751;SDS011;3413;47.680;9.166;2023-03-04T03:04:56;49.20;;;14.90;;
6751;SDS011;3413;47.680;9.166;2023-03-04T03:10:00;40.47;;;15.10;;
6751;SDS011;3413;47.680;9.166;2023-03-04T03:15:04;40.17;;;14.40;;
6751;SDS011;3413;47.680;9.166;2023-03-04T03:20:07;42.70;;;14.70;;
6751;SDS011;3413;47.680;9.166;2023-03-04T03:25:11;49.53;;;16.90;;
6751;SDS011;3413;47.680;9.166;2023-03-04T03:30:14;46.63;;;15.67;;
6751;SDS011;3413;47.680;9.166;2023-03-04T03:35:16;49.63;;;14.77;;
6751;SDS011;3413;47.680;9.166;2023-03-04T03:40:19;53.60;;;16.63;;
6751;SDS011;3413;47.680;9.166;2023-03-04T03:45:21;49.67;;;17.00;;
6751;SDS011;3413;47.680;9.166;2023-03-04T03:50:22;53.53;;;17.93;;
6751;SDS011;3413;47.680;9.166;2023-03-04T03:55:24;48.07;;;15.47;;
6751;SDS011;3413;47.680;9.166;2023-03-04T04:00:27;50.53;;;15.90;;
6751;SDS011;3413;47.680;9.166;2023-03-04T04:05:29;59.83;;;17.60;;
6751;SDS011;3413;47.680;9.166;2023-03-04T04:10:30;54.00;;;17.00;;
6751;SDS011;3413;47.680;9.166;2023-03-04T04:15:32;51.67;;;17.10;;
6751;SDS011;3413;47.680;9.166;2023-03-04T04:20:34;50.90;;;16.30;;
6751;SDS011;3413;47.680;9.166;2023-03-04T04:25:36;51.50;;;15.67;;
6751;SDS011;3413;47.680;9.166;2023-03-04T04:30:38;43.93;;;15.50;;
6751;SDS011;3413;47.680;9.166;2023-03-04T04:35:40;48.20;;;15.97;;
6751;SDS011;3413;47.680;9.166;2023-03-04T04:40:42;44.63;;;15.10;;
6751;SDS011;3413;47.680;9.166;2023-03-04T04:45:44;55.87;;;17.33;;
6751;SDS011;3413;47.680;9.166;2023-03-04T04:50:46;51.10;;;16.90;;
6751;SDS011;3413;47.680;9.166;2023-03-04T04:55:54;52.20;;;16.50;;
6751;SDS011;3413;47.680;9.166;2023-03-04T05:00:56;45.67;;;15.90;;
6751;SDS011;3413;47.680;9.166;2023-03-04T05:05:58;40.60;;;13.83;;
6751;SDS011;3413;47.680;9.166;2023-03-04T05:11:00;43.67;;;16.60;;
6751;SDS011;3413;47.680;9.166;2023-03-04T05:16:05;53.43;;;17.63;;
6751;SDS011;3413;47.680;9.166;2023-03-04T05:21:07;47.50;;;16.17;;
6751;SDS011;3413;47.680;9.166;2023-03-04T05:26:10;49.97;;;16.77;;
6751;SDS011;3413;47.680;9.166;2023-03-04T05:31:15;43.53;;;15.53;;
6751;SDS011;3413;47.680;9.166;2023-03-04T05:36:18;47.60;;;14.23;;
6751;SDS011;3413;47.680;9.166;2023-03-04T05:41:19;45.43;;;15.67;;
6751;SDS011;3413;47.680;9.166;2023-03-04T05:46:23;49.70;;;18.17;;
6751;SDS011;3413;47.680;9.166;2023-03-04T05:51:26;55.63;;;16.17;;
6751;SDS011;3413;47.680;9.166;2023-03-04T05:56:27;57.80;;;17.60;;
6751;SDS011;3413;47.680;9.166;2023-03-04T06:01:30;69.97;;;20.90;;
6751;SDS011;3413;47.680;9.166;2023-03-04T06:06:32;70.93;;;19.67;;
6751;SDS011;3413;47.680;9.166;2023-03-04T06:11:34;76.73;;;20.27;;
6751;SDS011;3413;47.680;9.166;2023-03-04T06:16:36;73.90;;;20.70;;
6751;SDS011;3413;47.680;9.166;2023-03-04T06:21:38;76.93;;;19.40;;
6751;SDS011;3413;47.680;9.166;2023-03-04T06:26:40;75.23;;;19.80;;
6751;SDS011;3413;47.680;9.166;2023-03-04T06:31:42;53.30;;;18.57;;
6751;SDS011;3413;47.680;9.166;2023-03-04T06:36:44;73.70;;;19.20;;
6751;SDS011;3413;47.680;9.166;2023-03-04T06:41:46;71.53;;;19.30;;
6751;SDS011;3413;47.680;9.166;2023-03-04T06:46:47;55.60;;;18.20;;
6751;SDS011;3413;47.680;9.166;2023-03-04T06:51:49;62.13;;;21.50;;
6751;SDS011;3413;47.680;9.166;2023-03-04T06:56:51;76.30;;;21.73;;
6751;SDS011;3413;47.680;9.166;2023-03-04T07:01:53;74.57;;;22.00;;
6751;SDS011;3413;47.680;9.166;2023-03-04T07:06:55;68.00;;;19.43;;
6751;SDS011;3413;47.680;9.166;2023-03-04T07:11:57;68.00;;;21.83;;
6751;SDS011;3413;47.680;9.166;2023-03-04T07:16:59;67.37;;;20.80;;
6751;SDS011;3413;47.680;9.166;2023-03-04T07:22:01;59.93;;;19.90;;
6751;SDS011;3413;47.680;9.166;2023-03-04T07:27:03;81.10;;;18.53;;
6751;SDS011;3413;47.680;9.166;2023-03-04T07:32:08;57.77;;;21.17;;
6751;SDS011;3413;47.680;9.166;2023-03-04T07:37:11;63.77;;;19.47;;
6751;SDS011;3413;47.680;9.166;2023-03-04T07:42:13;57.77;;;18.47;;
6751;SDS011;3413;47.680;9.166;2023-03-04T07:47:18;59.53;;;18.47;;
6751;SDS011;3413;47.680;9.166;2023-03-04T07:52:20;66.87;;;19.07;;
6751;SDS011;3413;47.680;9.166;2023-03-04T07:57:22;55.97;;;19.60;;
6751;SDS011;3413;47.680;9.166;2023-03-04T08:02:24;64.43;;;18.83;;
6751;SDS011;3413;47.680;9.166;2023-03-04T08:07:26;73.77;;;20.00;;
6751;SDS011;3413;47.680;9.166;2023-03-04T08:12:28;64.90;;;21.00;;
6751;SDS011;3413;47.680;9.166;2023-03-04T08:17:30;52.97;;;18.33;;
6751;SDS011;3413;47.680;9.166;2023-03-04T08:22:32;55.60;;;18.30;;
6751;SDS011;3413;47.680;9.166;2023-03-04T08:27:34;67.10;;;19.80;;
6751;SDS011;3413;47.680;9.166;2023-03-04T08:32:37;56.70;;;19.63;;
6751;SDS011;3413;47.680;9.166;2023-03-04T08:37:39;68.90;;;23.27;;
6751;SDS011;3413;47.680;9.166;2023-03-04T08:42:41;70.00;;;22.33;;
6751;SDS011;3413;47.680;9.166;2023-03-04T08:47:43;60.03;;;18.83;;
6751;SDS011;3413;47.680;9.166;2023-03-04T08:52:45;62.37;;;18.47;;
6751;SDS011;3413;47.680;9.166;2023-03-04T08:57:47;72.37;;;19.10;;
6751;SDS011;3413;47.680;9.166;2023-03-04T09:02:49;61.13;;;20.63;;
6751;SDS011;3413;47.680;9.166;2023-03-04T09:07:51;67.17;;;19.27;;
6751;SDS011;3413;47.680;9.166;2023-03-04T09:12:54;63.80;;;20.13;;
6751;SDS011;3413;47.680;9.166;2023-03-04T09:17:56;66.97;;;20.17;;
6751;SDS011;3413;47.680;9.166;2023-03-04T09:22:58;52.00;;;18.33;;
6751;SDS011;3413;47.680;9.166;2023-03-04T09:28:00;78.20;;;20.57;;
6751;SDS011;3413;47.680;9.166;2023-03-04T09:33:02;60.43;;;20.20;;
6751;SDS011;3413;47.680;9.166;2023-03-04T09:38:04;59.70;;;19.80;;
6751;SDS011;3413;47.680;9.166;2023-03-04T09:43:10;66.30;;;21.13;;
6751;SDS011;3413;47.680;9.166;2023-03-04T09:48:24;71.53;;;21.20;;
6751;SDS011;3413;47.680;9.166;2023-03-04T09:53:39;74.87;;;21.30;;
6751;SDS011;3413;47.680;9.166;2023-03-04T10:04:16;64.27;;;19.50;;
6751;SDS011;3413;47.680;9.166;2023-03-04T10:14:58;57.03;;;18.70;;
6751;SDS011;3413;47.680;9.166;2023-03-04T10:20:17;61.83;;;22.07;;
6751;SDS011;3413;47.680;9.166;2023-03-04T10:25:47;79.73;;;23.70;;
6751;SDS011;3413;47.680;9.166;2023-03-04T10:41:23;53.77;;;16.40;;
6751;SDS011;3413;47.680;9.166;2023-03-04T10:46:28;59.40;;;19.30;;
6751;SDS011;3413;47.680;9.166;2023-03-04T10:51:31;52.70;;;17.83;;
6751;SDS011;3413;47.680;9.166;2023-03-04T10:56:42;53.63;;;19.40;;
6751;SDS011;3413;47.680;9.166;2023-03-04T11:02:00;49.83;;;16.53;;
6751;SDS011;3413;47.680;9.166;2023-03-04T11:07:18;62.97;;;18.60;;
6751;SDS011;3413;47.680;9.166;2023-03-04T11:12:31;56.77;;;19.20;;
6751;SDS011;3413;47.680;9.166;2023-03-04T11:17:41;59.07;;;18.83;;
6751;SDS011;3413;47.680;9.166;2023-03-04T11:22:47;62.97;;;20.13;;
6751;SDS011;3413;47.680;9.166;2023-03-04T11:27:53;56.27;;;19.10;;
6751;SDS011;3413;47.680;9.166;2023-03-04T11:33:01;65.07;;;21.10;;
6751;SDS011;3413;47.680;9.166;2023-03-04T11:38:37;50.20;;;19.23;;
6751;SDS011;3413;47.680;9.166;2023-03-04T11:43:45;54.40;;;18.20;;
6751;SDS011;3413;47.680;9.166;2023-03-04T11:48:49;53.97;;;18.90;;
6751;SDS011;3413;47.680;9.166;2023-03-04T11:54:24;72.93;;;19.40;;
6751;SDS011;3413;47.680;9.166;2023-03-04T12:10:57;55.07;;;18.40;;
6751;SDS011;3413;47.680;9.166;2023-03-04T12:22:04;64.30;;;19.27;;
6751;SDS011;3413;47.680;9.166;2023-03-04T12:28:03;59.50;;;20.70;;
6751;SDS011;3413;47.680;9.166;2023-03-04T12:38:07;56.37;;;20.10;;
6751;SDS011;3413;47.680;9.166;2023-03-04T12:48:38;53.60;;;20.40;;
6751;SDS011;3413;47.680;9.166;2023-03-04T12:59:16;59.33;;;22.03;;
6751;SDS011;3413;47.680;9.166;2023-03-04T13:09:49;54.37;;;21.03;;
6751;SDS011;3413;47.680;9.166;2023-03-04T13:20:20;55.97;;;19.37;;
6751;SDS011;3413;47.680;9.166;2023-03-04T13:46:27;49.97;;;16.03;;
6751;SDS011;3413;47.680;9.166;2023-03-04T13:51:40;44.73;;;18.67;;
6751;SDS011;3413;47.680;9.166;2023-03-04T13:56:46;48.70;;;15.17;;
6751;SDS011;3413;47.680;9.166;2023-03-04T14:07:16;45.97;;;15.23;;
6751;SDS011;3413;47.680;9.166;2023-03-04T14:12:19;59.73;;;17.03;;
6751;SDS011;3413;47.680;9.166;2023-03-04T14:17:23;52.23;;;18.57;;
6751;SDS011;3413;47.680;9.166;2023-03-04T14:22:29;46.53;;;18.10;;
6751;SDS011;3413;47.680;9.166;2023-03-04T14:27:34;46.33;;;18.33;;
6751;SDS011;3413;47.680;9.166;2023-03-04T14:32:37;52.17;;;17.57;;
6751;SDS011;3413;47.680;9.166;2023-03-04T14:37:47;43.87;;;17.50;;
6751;SDS011;3413;47.680;9.166;2023-03-04T14:43:05;51.73;;;17.30;;
6751;SDS011;3413;47.680;9.166;2023-03-04T14:48:24;51.00;;;17.20;;
6751;SDS011;3413;47.680;9.166;2023-03-04T14:53:33;50.00;;;17.87;;
6751;SDS011;3413;47.680;9.166;2023-03-04T14:58:37;47.40;;;16.27;;
6751;SDS011;3413;47.680;9.166;2023-03-04T15:09:05;53.47;;;18.10;;
6751;SDS011;3413;47.680;9.166;2023-03-04T15:14:53;51.73;;;18.03;;
6751;SDS011;3413;47.680;9.166;2023-03-04T15:20:00;43.83;;;18.03;;
6751;SDS011;3413;47.680;9.166;2023-03-04T15:25:11;47.33;;;16.53;;
6751;SDS011;3413;47.680;9.166;2023-03-04T15:30:22;51.93;;;17.17;;
6751;SDS011;3413;47.680;9.166;2023-03-04T15:35:29;50.63;;;16.57;;
6751;SDS011;3413;47.680;9.166;2023-03-04T15:40:37;45.63;;;16.40;;
6751;SDS011;3413;47.680;9.166;2023-03-04T15:45:42;42.63;;;15.90;;
6751;SDS011;3413;47.680;9.166;2023-03-04T15:50:54;49.70;;;16.53;;
6751;SDS011;3413;47.680;9.166;2023-03-04T15:55:56;40.67;;;15.67;;
6751;SDS011;3413;47.680;9.166;2023-03-04T16:00:58;53.60;;;16.80;;
6751;SDS011;3413;47.680;9.166;2023-03-04T16:06:00;47.63;;;17.03;;
6751;SDS011;3413;47.680;9.166;2023-03-04T16:11:02;59.73;;;18.60;;
6751;SDS011;3413;47.680;9.166;2023-03-04T16:16:04;44.37;;;16.60;;
6751;SDS011;3413;47.680;9.166;2023-03-04T16:21:14;49.87;;;18.33;;
6751;SDS011;3413;47.680;9.166;2023-03-04T16:26:19;59.00;;;19.60;;
6751;SDS011;3413;47.680;9.166;2023-03-04T16:31:22;50.73;;;18.90;;
6751;SDS011;3413;47.680;9.166;2023-03-04T16:36:25;54.33;;;17.27;;
6751;SDS011;3413;47.680;9.166;2023-03-04T16:41:29;59.60;;;19.50;;
6751;SDS011;3413;47.680;9.166;2023-03-04T16:46:31;54.77;;;18.07;;
6751;SDS011;3413;47.680;9.166;2023-03-04T16:51:33;63.53;;;21.40;;
6751;SDS011;3413;47.680;9.166;2023-03-04T16:56:40;57.13;;;19.90;;
6751;SDS011;3413;47.680;9.166;2023-03-04T17:01:42;47.80;;;19.23;;
6751;SDS011;3413;47.680;9.166;2023-03-04T17:06:44;52.87;;;18.50;;
6751;SDS011;3413;47.680;9.166;2023-03-04T17:11:46;63.40;;;21.67;;
6751;SDS011;3413;47.680;9.166;2023-03-04T17:16:48;58.70;;;19.50;;
6751;SDS011;3413;47.680;9.166;2023-03-04T17:21:50;60.97;;;21.60;;
6751;SDS011;3413;47.680;9.166;2023-03-04T17:26:52;57.30;;;17.97;;
6751;SDS011;3413;47.680;9.166;2023-03-04T17:31:54;56.93;;;18.70;;
6751;SDS011;3413;47.680;9.166;2023-03-04T17:36:56;47.73;;;18.20;;
6751;SDS011;3413;47.680;9.166;2023-03-04T17:41:58;55.87;;;18.67;;
6751;SDS011;3413;47.680;9.166;2023-03-04T17:47:00;61.83;;;19.30;;
6751;SDS011;3413;47.680;9.166;2023-03-04T17:52:02;51.77;;;19.20;;
6751;SDS011;3413;47.680;9.166;2023-03-04T17:57:05;55.97;;;19.07;;
6751;SDS011;3413;47.680;9.166;2023-03-04T18:02:09;55.00;;;19.80;;
6751;SDS011;3413;47.680;9.166;2023-03-04T18:07:15;54.23;;;18.57;;
6751;SDS011;3413;47.680;9.166;2023-03-04T18:12:17;51.03;;;17.10;;
6751;SDS011;3413;47.680;9.166;2023-03-04T18:17:18;33.80;;;13.20;;
6751;SDS011;3413;47.680;9.166;2023-03-04T18:22:20;36.43;;;11.90;;
6751;SDS011;3413;47.680;9.166;2023-03-04T18:27:22;32.07;;;11.20;;
6751;SDS011;3413;47.680;9.166;2023-03-04T18:32:24;30.43;;;10.80;;
6751;SDS011;3413;47.680;9.166;2023-03-04T18:37:26;28.23;;;11.13;;
6751;SDS011;3413;47.680;9.166;2023-03-04T18:42:28;35.10;;;10.23;;
6751;SDS011;3413;47.680;9.166;2023-03-04T18:47:30;27.30;;;10.17;;
6751;SDS011;3413;47.680;9.166;2023-03-04T18:52:33;25.10;;;9.33;;
6751;SDS011;3413;47.680;9.166;2023-03-04T18:57:39;29.13;;;10.20;;
6751;SDS011;3413;47.680;9.166;2023-03-04T19:02:45;27.93;;;10.00;;
6751;SDS011;3413;47.680;9.166;2023-03-04T19:07:48;34.73;;;10.20;;
6751;SDS011;3413;47.680;9.166;2023-03-04T19:12:50;40.13;;;9.83;;
6751;SDS011;3413;47.680;9.166;2023-03-04T19:17:52;31.23;;;11.60;;
6751;SDS011;3413;47.680;9.166;2023-03-04T19:22:54;33.70;;;11.47;;
6751;SDS011;3413;47.680;9.166;2023-03-04T19:27:56;35.77;;;11.13;;
6751;SDS011;3413;47.680;9.166;2023-03-04T19:32:58;39.10;;;11.63;;
6751;SDS011;3413;47.680;9.166;2023-03-04T19:38:00;35.83;;;12.20;;
6751;SDS011;3413;47.680;9.166;2023-03-04T19:43:02;43.20;;;12.90;;
6751;SDS011;3413;47.680;9.166;2023-03-04T19:48:05;38.37;;;11.67;;
6751;SDS011;3413;47.680;9.166;2023-03-04T19:53:07;34.57;;;12.20;;
6751;SDS011;3413;47.680;9.166;2023-03-04T19:58:09;43.30;;;13.30;;
6751;SDS011;3413;47.680;9.166;2023-03-04T20:03:11;35.60;;;11.27;;
6751;SDS011;3413;47.680;9.166;2023-03-04T20:08:13;35.97;;;13.50;;
6751;SDS011;3413;47.680;9.166;2023-03-04T20:13:17;32.30;;;13.20;;
6751;SDS011;3413;47.680;9.166;2023-03-04T20:18:19;41.13;;;12.60;;
6751;SDS011;3413;47.680;9.166;2023-03-04T20:23:21;41.23;;;12.97;;
6751;SDS011;3413;47.680;9.166;2023-03-04T20:28:23;35.60;;;12.87;;
6751;SDS011;3413;47.680;9.166;2023-03-04T20:33:26;36.40;;;13.40;;
6751;SDS011;3413;47.680;9.166;2023-03-04T20:38:28;41.13;;;12.10;;
6751;SDS011;3413;47.680;9.166;2023-03-04T20:43:30;32.00;;;12.03;;
6751;SDS011;3413;47.680;9.166;2023-03-04T20:48:32;38.43;;;12.43;;
6751;SDS011;3413;47.680;9.166;2023-03-04T20:53:34;32.20;;;11.73;;
6751;SDS011;3413;47.680;9.166;2023-03-04T20:58:36;40.97;;;11.30;;
6751;SDS011;3413;47.680;9.166;2023-03-04T21:03:38;31.30;;;11.40;;
6751;SDS011;3413;47.680;9.166;2023-03-04T21:08:41;30.90;;;11.83;;
6751;SDS011;3413;47.680;9.166;2023-03-04T21:13:43;34.67;;;12.37;;
6751;SDS011;3413;47.680;9.166;2023-03-04T21:18:46;36.03;;;11.90;;
6751;SDS011;3413;47.680;9.166;2023-03-04T21:23:49;34.80;;;13.30;;
6751;SDS011;3413;47.680;9.166;2023-03-04T21:28:52;50.63;;;14.30;;
6751;SDS011;3413;47.680;9.166;2023-03-04T21:33:55;40.20;;;13.50;;
6751;SDS011;3413;47.680;9.166;2023-03-04T21:39:00;35.77;;;11.07;;
6751;SDS011;3413;47.680;9.166;2023-03-04T21:44:02;34.50;;;12.40;;
6751;SDS011;3413;47.680;9.166;2023-03-04T21:49:04;33.67;;;13.03;;
6751;SDS011;3413;47.680;9.166;2023-03-04T21:54:09;36.40;;;12.30;;
6751;SDS011;3413;47.680;9.166;2023-03-04T21:59:13;40.73;;;11.90;;
6751;SDS011;3413;47.680;9.166;2023-03-04T22:04:15;40.13;;;11.30;;
6751;SDS011;3413;47.680;9.166;2023-03-04T22:09:17;37.77;;;12.27;;
6751;SDS011;3413;47.680;9.166;2023-03-04T22:14:19;38.23;;;12.43;;
6751;SDS011;3413;47.680;9.166;2023-03-04T22:19:25;35.90;;;12.37;;
6751;SDS011;3413;47.680;9.166;2023-03-04T22:24:30;39.90;;;12.17;;
6751;SDS011;3413;47.680;9.166;2023-03-04T22:29:33;35.60;;;12.67;;
6751;SDS011;3413;47.680;9.166;2023-03-04T22:34:35;36.80;;;11.33;;
6751;SDS011;3413;47.680;9.166;2023-03-04T22:39:37;33.73;;;11.47;;
6751;SDS011;3413;47.680;9.166;2023-03-04T22:44:39;46.23;;;11.70;;
6751;SDS011;3413;47.680;9.166;2023-03-04T22:49:41;37.00;;;11.53;;
6751;SDS011;3413;47.680;9.166;2023-03-04T22:54:43;38.57;;;10.77;;
6751;SDS011;3413;47.680;9.166;2023-03-04T22:59:48;44.17;;;11.73;;
6751;SDS011;3413;47.680;9.166;2023-03-04T23:04:50;41.60;;;11.97;;
6751;SDS011;3413;47.680;9.166;2023-03-04T23:09:52;35.83;;;10.30;;
6751;SDS011;3413;47.680;9.166;2023-03-04T23:14:54;35.63;;;10.97;;
6751;SDS011;3413;47.680;9.166;2023-03-04T23:19:56;34.50;;;10.53;;
6751;SDS011;3413;47.680;9.166;2023-03-04T23:24:58;39.23;;;10.33;;
6751;SDS011;3413;47.680;9.166;2023-03-04T23:30:00;50.40;;;12.00;;
6751;SDS011;3413;47.680;9.166;2023-03-04T23:35:03;36.43;;;11.37;;
6751;SDS011;3413;47.680;9.166;2023-03-04T23:40:05;31.33;;;10.60;;
6751;SDS011;3413;47.680;9.166;2023-03-04T23:45:08;29.80;;;10.47;;
6751;SDS011;3413;47.680;9.166;2023-03-04T23:50:10;29.23;;;8.67;;
6751;SDS011;3413;47.680;9.166;2023-03-04T23:55:16;32.40;;;10.70;;
